Time;durP1;ratioP1;P1;durP2;ratioP2;P2;SDS_P1;SDS_P2;PMS_P1;PMS_P2;Temp;Humidity;BMP_temperature;BMP_pressure;BME280_temperature;BME280_humidity;BME280_pressure;Samples;Min_cycle;Max_cycle;Signal;HPM_P1;HPM_P2
2022/12/13 00:02:10;;;;;;;13.73;7.88;;;;;;;;;;8407653;28;20096;-85
2022/12/13 00:06:13;;;;;;;29.02;13.82;;;;;;;;;;8395697;28;20044;-82
2022/12/13 00:10:16;;;;;;;24.45;10.60;;;;;;;;;;8394575;28;20079;-89
2022/12/13 00:14:20;;;;;;;24.50;11.52;;;;;;;;;;8394602;28;20045;-87
2022/12/13 00:18:23;;;;;;;22.83;12.52;;;;;;;;;;8401837;28;20468;-82
2022/12/13 00:22:26;;;;;;;21.27;9.80;;;;;;;;;;8419842;28;20051;-90
2022/12/13 00:26:30;;;;;;;25.95;12.15;;;;;;;;;;8402506;28;20048;-87
2022/12/13 00:30:34;;;;;;;21.58;9.23;;;;;;;;;;8399534;28;20056;-85
2022/12/13 00:34:37;;;;;;;19.15;8.70;;;;;;;;;;8400067;28;20045;-87
2022/12/13 00:38:40;;;;;;;12.75;7.80;;;;;;;;;;8399922;28;20044;-90
2022/12/13 00:42:43;;;;;;;27.95;13.20;;;;;;;;;;8399794;28;20045;-81
2022/12/13 00:46:47;;;;;;;25.50;12.30;;;;;;;;;;8399628;28;20048;-90
2022/12/13 00:50:49;;;;;;;24.70;11.80;;;;;;;;;;8399050;28;20059;-80
2022/12/13 00:54:52;;;;;;;24.50;12.13;;;;;;;;;;8398880;28;20044;-85
2022/12/13 00:58:55;;;;;;;20.83;11.07;;;;;;;;;;8399005;28;20507;-88
2022/12/13 01:03:18;;;;;;;28.75;13.23;;;;;;;;;;8384831;28;20040;-81
2022/12/13 01:07:21;;;;;;;26.98;11.80;;;;;;;;;;8393734;28;20536;-86
2022/12/13 01:11:24;;;;;;;25.20;12.32;;;;;;;;;;8398608;28;20060;-83
2022/12/13 01:15:26;;;;;;;13.88;7.55;;;;;;;;;;8399014;28;20052;-86
2022/12/13 01:19:31;;;;;;;26.85;11.70;;;;;;;;;;8397995;28;20051;-89
2022/12/13 01:23:35;;;;;;;25.10;12.05;;;;;;;;;;8399073;28;20040;-81
2022/12/13 01:27:37;;;;;;;16.52;8.48;;;;;;;;;;8398084;28;20408;-84
2022/12/13 01:31:41;;;;;;;27.83;12.30;;;;;;;;;;8397000;28;20047;-89
2022/12/13 01:35:45;;;;;;;24.67;11.98;;;;;;;;;;8398191;28;20040;-90
2022/12/13 01:39:47;;;;;;;17.65;8.77;;;;;;;;;;8397985;28;20055;-88
2022/12/13 01:43:54;;;;;;;16.23;9.27;;;;;;;;;;8397549;28;20041;-89
2022/12/13 01:48:01;;;;;;;25.35;11.15;;;;;;;;;;8397815;28;20127;-89
2022/12/13 01:52:10;;;;;;;27.00;11.60;;;;;;;;;;8393104;28;20048;-86
2022/12/13 01:56:19;;;;;;;9.02;4.90;;;;;;;;;;8397190;28;20091;-81
2022/12/13 02:00:22;;;;;;;13.50;6.28;;;;;;;;;;8390755;28;20491;-83
2022/12/13 02:04:30;;;;;;;27.90;12.18;;;;;;;;;;8396888;28;20048;-87
2022/12/13 02:08:37;;;;;;;21.70;11.13;;;;;;;;;;8396941;28;20408;-83
2022/12/13 02:12:41;;;;;;;24.38;10.52;;;;;;;;;;8396632;28;20068;-85
2022/12/13 02:16:54;;;;;;;25.45;11.70;;;;;;;;;;8396039;28;20484;-83
2022/12/13 02:21:07;;;;;;;25.40;12.20;;;;;;;;;;8396955;28;20045;-87
2022/12/13 02:25:31;;;;;;;24.73;9.27;;;;;;;;;;8396767;28;20123;-89
2022/12/13 02:30:19;;;;;;;19.35;10.05;;;;;;;;;;8410941;28;20055;-87
2022/12/13 02:34:27;;;;;;;21.25;10.20;;;;;;;;;;8381978;28;20055;-88
2022/12/13 02:38:36;;;;;;;17.05;8.60;;;;;;;;;;8396575;28;20044;-89
2022/12/13 02:42:45;;;;;;;24.10;10.48;;;;;;;;;;8396162;28;20046;-89
2022/12/13 02:46:51;;;;;;;14.48;6.72;;;;;;;;;;8396871;28;20449;-89
2022/12/13 02:50:58;;;;;;;23.90;11.15;;;;;;;;;;8396189;28;20491;-87
2022/12/13 02:55:06;;;;;;;24.02;11.77;;;;;;;;;;8395009;28;20462;-88
2022/12/13 02:59:14;;;;;;;27.23;12.82;;;;;;;;;;8396231;28;20476;-87
2022/12/13 03:03:28;;;;;;;20.70;10.63;;;;;;;;;;8395366;28;20535;-86
2022/12/13 03:07:38;;;;;;;10.02;5.32;;;;;;;;;;8394810;28;20086;-82
2022/12/13 03:16:32;;;;;;;23.90;9.65;;;;;;;;;;8395269;28;20537;-85
2022/12/13 03:20:35;;;;;;;8.82;4.75;;;;;;;;;;8395513;28;20052;-87
2022/12/13 03:24:39;;;;;;;25.45;9.35;;;;;;;;;;8395081;28;20093;-88
2022/12/13 03:28:42;;;;;;;9.93;5.15;;;;;;;;;;8394973;28;20048;-89
2022/12/13 03:32:44;;;;;;;19.95;9.80;;;;;;;;;;8394883;28;20055;-83
2022/12/13 03:36:47;;;;;;;19.38;9.57;;;;;;;;;;8394785;28;20044;-82
2022/12/13 03:40:53;;;;;;;10.40;6.43;;;;;;;;;;8392901;28;20040;-88
2022/12/13 03:44:55;;;;;;;19.45;10.00;;;;;;;;;;8394993;28;20400;-86
2022/12/13 03:48:58;;;;;;;17.40;7.90;;;;;;;;;;8396197;28;20039;-89
2022/12/13 03:53:02;;;;;;;19.98;10.00;;;;;;;;;;8404118;28;20060;-80
2022/12/13 03:57:06;;;;;;;11.70;5.28;;;;;;;;;;8400744;28;20668;-85
2022/12/13 04:01:11;;;;;;;16.05;7.13;;;;;;;;;;8400574;28;20048;-89
2022/12/13 04:05:14;;;;;;;22.08;10.30;;;;;;;;;;8400817;28;20056;-84
2022/12/13 04:09:17;;;;;;;24.13;10.57;;;;;;;;;;8399947;28;20044;-83
2022/12/13 04:13:32;;;;;;;14.05;6.13;;;;;;;;;;8400743;28;20045;-90
2022/12/13 04:17:35;;;;;;;24.95;10.20;;;;;;;;;;8400546;28;20112;-87
2022/12/13 04:21:38;;;;;;;6.90;4.05;;;;;;;;;;8387943;28;20040;-90
2022/12/13 04:25:41;;;;;;;17.42;8.52;;;;;;;;;;8400383;28;20052;-84
2022/12/13 04:29:45;;;;;;;16.13;8.10;;;;;;;;;;8400251;28;20048;-88
2022/12/13 04:33:48;;;;;;;16.83;8.13;;;;;;;;;;8400223;28;20496;-89
2022/12/13 04:37:51;;;;;;;24.83;11.48;;;;;;;;;;8399686;28;20112;-88
2022/12/13 04:41:54;;;;;;;21.25;10.63;;;;;;;;;;8400140;28;20097;-85
2022/12/13 04:45:58;;;;;;;18.23;8.05;;;;;;;;;;8399628;28;20045;-87
2022/12/13 04:50:00;;;;;;;28.08;12.73;;;;;;;;;;8399408;28;20040;-81
2022/12/13 04:54:03;;;;;;;13.13;6.30;;;;;;;;;;8399207;28;20048;-82
2022/12/13 04:58:06;;;;;;;26.08;11.60;;;;;;;;;;8398918;28;20385;-85
2022/12/13 05:02:10;;;;;;;20.98;8.85;;;;;;;;;;8399644;28;20506;-89
2022/12/13 05:06:14;;;;;;;17.73;9.05;;;;;;;;;;8399381;28;20514;-82
2022/12/13 05:10:17;;;;;;;23.88;10.63;;;;;;;;;;8397919;28;20114;-89
2022/12/13 05:14:20;;;;;;;22.30;10.88;;;;;;;;;;8398966;28;20116;-88
2022/12/13 05:18:24;;;;;;;22.83;10.73;;;;;;;;;;8385830;28;20048;-89
2022/12/13 05:22:27;;;;;;;14.85;6.13;;;;;;;;;;8397795;28;20071;-86
2022/12/13 05:26:30;;;;;;;22.55;10.00;;;;;;;;;;8400185;28;20509;-89
2022/12/13 05:30:33;;;;;;;37.20;15.63;;;;;;;;;;8398349;28;20045;-81
2022/12/13 05:34:37;;;;;;;25.13;12.90;;;;;;;;;;8398651;28;20052;-90
2022/12/13 05:38:39;;;;;;;26.17;11.55;;;;;;;;;;8398602;28;20048;-90
2022/12/13 05:42:42;;;;;;;22.27;11.02;;;;;;;;;;8398709;28;20070;-85
2022/12/13 05:46:45;;;;;;;11.85;5.80;;;;;;;;;;8397807;28;20069;-88
2022/12/13 05:50:49;;;;;;;18.45;9.88;;;;;;;;;;8395086;28;20044;-89
2022/12/13 05:54:55;;;;;;;19.35;9.48;;;;;;;;;;8382296;28;20400;-90
2022/12/13 05:58:57;;;;;;;15.82;8.63;;;;;;;;;;8397299;28;20145;-83
2022/12/13 06:03:00;;;;;;;19.35;8.32;;;;;;;;;;8397305;28;20052;-90
2022/12/13 06:07:04;;;;;;;19.73;9.73;;;;;;;;;;8397677;28;20752;-88
2022/12/13 06:11:08;;;;;;;22.42;10.93;;;;;;;;;;8397101;28;20110;-89
2022/12/13 06:15:11;;;;;;;21.60;10.45;;;;;;;;;;8396756;28;20498;-82
2022/12/13 06:19:13;;;;;;;18.98;9.00;;;;;;;;;;8397198;28;20044;-89
2022/12/13 06:23:17;;;;;;;40.63;15.88;;;;;;;;;;8397406;28;20428;-84
2022/12/13 06:27:20;;;;;;;38.92;15.93;;;;;;;;;;8397669;28;20053;-88
2022/12/13 06:31:23;;;;;;;30.38;13.60;;;;;;;;;;8396550;28;20040;-90
2022/12/13 06:35:26;;;;;;;28.23;12.35;;;;;;;;;;8398381;28;20399;-86
2022/12/13 06:39:30;;;;;;;12.48;6.72;;;;;;;;;;8396663;28;20056;-90
2022/12/13 06:43:33;;;;;;;21.80;11.05;;;;;;;;;;8396438;28;20049;-87
2022/12/13 06:47:36;;;;;;;88.20;24.55;;;;;;;;;;8396051;28;20051;-87
2022/12/13 06:51:38;;;;;;;33.80;11.23;;;;;;;;;;8396455;28;20044;-91
2022/12/13 06:55:42;;;;;;;28.60;12.30;;;;;;;;;;8396719;28;20416;-90
2022/12/13 06:59:45;;;;;;;13.85;5.40;;;;;;;;;;8396495;28;20044;-85
2022/12/13 07:03:48;;;;;;;14.88;7.57;;;;;;;;;;8396215;28;20040;-85
2022/12/13 07:07:51;;;;;;;18.45;9.82;;;;;;;;;;8396548;28;20501;-86
2022/12/13 07:11:55;;;;;;;16.38;8.45;;;;;;;;;;8395892;28;20048;-90
2022/12/13 07:15:58;;;;;;;14.82;4.32;;;;;;;;;;8395778;28;20044;-87
2022/12/13 07:20:00;;;;;;;50.80;15.40;;;;;;;;;;8395830;28;20399;-87
2022/12/13 07:24:03;;;;;;;27.35;9.07;;;;;;;;;;8396336;28;20484;-82
2022/12/13 07:28:09;;;;;;;23.50;11.68;;;;;;;;;;8396019;28;20384;-88
2022/12/13 07:32:12;;;;;;;15.18;7.53;;;;;;;;;;8402048;28;20086;-89
2022/12/13 07:36:17;;;;;;;23.15;11.45;;;;;;;;;;8402658;28;20412;-92
2022/12/13 07:40:19;;;;;;;23.02;11.02;;;;;;;;;;8403776;28;20056;-87
2022/12/13 07:44:24;;;;;;;19.23;10.02;;;;;;;;;;8402930;28;20056;-90
2022/12/13 07:48:27;;;;;;;6.82;3.45;;;;;;;;;;8393117;28;20136;-92
2022/12/13 07:52:30;;;;;;;14.25;7.57;;;;;;;;;;8403062;28;20041;-83
2022/12/13 07:56:34;;;;;;;18.75;9.32;;;;;;;;;;8403109;28;20045;-90
2022/12/13 08:00:39;;;;;;;22.17;10.10;;;;;;;;;;8403128;28;20075;-80
2022/12/13 08:04:42;;;;;;;21.73;11.23;;;;;;;;;;8401709;28;20036;-91
2022/12/13 08:08:49;;;;;;;27.13;12.32;;;;;;;;;;8401975;28;20048;-90
2022/12/13 08:12:52;;;;;;;19.00;10.23;;;;;;;;;;8401219;28;20099;-85
2022/12/13 08:16:57;;;;;;;20.15;10.10;;;;;;;;;;8400520;28;20048;-81
2022/12/13 08:21:01;;;;;;;21.35;10.65;;;;;;;;;;8400400;28;20076;-81
2022/12/13 08:25:05;;;;;;;22.48;10.27;;;;;;;;;;8397376;28;20480;-81
2022/12/13 08:29:08;;;;;;;21.45;9.50;;;;;;;;;;8400681;28;20501;-86
2022/12/13 08:33:12;;;;;;;14.70;7.25;;;;;;;;;;8399862;28;20476;-82
2022/12/13 08:37:15;;;;;;;16.20;8.63;;;;;;;;;;8400165;28;20127;-79
2022/12/13 08:41:18;;;;;;;15.85;8.07;;;;;;;;;;8400460;28;20089;-90
2022/12/13 08:45:22;;;;;;;17.77;10.27;;;;;;;;;;8400174;28;20044;-85
2022/12/13 08:49:26;;;;;;;23.48;12.52;;;;;;;;;;8392133;28;20349;-90
2022/12/13 08:53:29;;;;;;;29.45;11.77;;;;;;;;;;8393264;28;20048;-90
2022/12/13 08:57:32;;;;;;;20.60;10.18;;;;;;;;;;8397267;28;20392;-91
2022/12/13 09:01:35;;;;;;;14.30;8.23;;;;;;;;;;8398955;28;20040;-92
2022/12/13 09:05:40;;;;;;;10.50;5.63;;;;;;;;;;8400276;28;20540;-89
2022/12/13 09:09:43;;;;;;;25.30;10.32;;;;;;;;;;8401095;28;20068;-92
2022/12/13 09:13:46;;;;;;;19.00;8.93;;;;;;;;;;8386318;28;20040;-85
2022/12/13 09:17:48;;;;;;;19.38;9.15;;;;;;;;;;8399918;28;20123;-89
2022/12/13 09:21:53;;;;;;;13.77;7.32;;;;;;;;;;8398049;28;20045;-85
2022/12/13 09:25:56;;;;;;;142.00;42.53;;;;;;;;;;8397261;28;20495;-89
2022/12/13 09:29:59;;;;;;;39.53;18.33;;;;;;;;;;8398144;28;20044;-86
2022/12/13 09:34:02;;;;;;;37.63;15.98;;;;;;;;;;8397458;28;20500;-85
2022/12/13 09:38:07;;;;;;;17.80;9.30;;;;;;;;;;8398377;28;20416;-80
2022/12/13 09:42:19;;;;;;;14.07;7.05;;;;;;;;;;8397434;28;20487;-88
2022/12/13 09:46:29;;;;;;;10.30;5.90;;;;;;;;;;8396449;28;20127;-83
2022/12/13 09:50:35;;;;;;;15.40;7.05;;;;;;;;;;8393326;28;20044;-88
2022/12/13 09:54:41;;;;;;;8.85;5.30;;;;;;;;;;8393297;28;20487;-84
2022/12/13 09:58:49;;;;;;;6.07;4.22;;;;;;;;;;8393103;28;20051;-88
2022/12/13 10:02:55;;;;;;;9.88;5.68;;;;;;;;;;8393750;28;20170;-85
2022/12/13 10:06:59;;;;;;;9.85;5.10;;;;;;;;;;8416984;28;20189;-83
2022/12/13 10:11:04;;;;;;;11.70;6.10;;;;;;;;;;8425618;28;20586;-90
2022/12/13 10:15:10;;;;;;;14.25;6.78;;;;;;;;;;8426308;28;20384;-84
2022/12/13 10:19:18;;;;;;;18.50;7.00;;;;;;;;;;8398553;28;20040;-90
2022/12/13 10:23:21;;;;;;;14.60;6.93;;;;;;;;;;8410807;28;20079;-89
2022/12/13 10:27:30;;;;;;;12.43;6.25;;;;;;;;;;8416631;28;20132;-90
2022/12/13 10:31:42;;;;;;;13.77;6.47;;;;;;;;;;8396900;28;20072;-89
2022/12/13 10:35:46;;;;;;;14.70;6.80;;;;;;;;;;8377147;28;20041;-86
2022/12/13 10:39:49;;;;;;;10.68;6.95;;;;;;;;;;8395030;28;20122;-88
2022/12/13 10:44:09;;;;;;;14.68;7.13;;;;;;;;;;8424882;28;20039;-86
2022/12/13 10:48:21;;;;;;;11.95;5.40;;;;;;;;;;8393164;28;20040;-89
2022/12/13 10:52:30;;;;;;;17.27;8.07;;;;;;;;;;8400055;28;20056;-90
2022/12/13 10:56:37;;;;;;;16.65;7.15;;;;;;;;;;8412175;28;20502;-87
2022/12/13 11:00:43;;;;;;;13.95;6.80;;;;;;;;;;8406061;28;20474;-86
2022/12/13 11:04:47;;;;;;;12.43;7.13;;;;;;;;;;8394895;28;20049;-89
2022/12/13 11:08:50;;;;;;;17.55;8.13;;;;;;;;;;8385525;28;20106;-90
2022/12/13 11:12:59;;;;;;;12.07;5.53;;;;;;;;;;8388691;28;20060;-89
2022/12/13 11:17:09;;;;;;;12.63;6.45;;;;;;;;;;8391643;28;20407;-86
2022/12/13 11:21:12;;;;;;;12.95;7.05;;;;;;;;;;8386403;28;20487;-88
2022/12/13 11:25:22;;;;;;;16.52;7.45;;;;;;;;;;8394389;28;20126;-90
2022/12/13 11:29:46;;;;;;;13.35;7.63;;;;;;;;;;8394072;28;20047;-90
2022/12/13 11:34:01;;;;;;;8.32;3.80;;;;;;;;;;8396353;28;20415;-88
2022/12/13 11:38:15;;;;;;;16.85;7.55;;;;;;;;;;8394391;28;20094;-87
2022/12/13 11:42:25;;;;;;;13.25;6.90;;;;;;;;;;8394892;28;20060;-90
2022/12/13 11:46:35;;;;;;;4.55;2.80;;;;;;;;;;8394373;28;20049;-88
2022/12/13 11:50:42;;;;;;;22.02;8.95;;;;;;;;;;8395096;28;20052;-83
2022/12/13 11:54:52;;;;;;;19.00;9.07;;;;;;;;;;8403556;28;20475;-85
2022/12/13 11:59:03;;;;;;;15.13;7.85;;;;;;;;;;8400506;28;20044;-86
2022/12/13 12:03:18;;;;;;;16.98;7.75;;;;;;;;;;8382991;28;20125;-88
2022/12/13 12:07:30;;;;;;;17.52;8.30;;;;;;;;;;8395349;28;20490;-89
2022/12/13 12:11:36;;;;;;;19.88;9.50;;;;;;;;;;8395017;28;20056;-81
2022/12/13 12:15:44;;;;;;;23.52;12.23;;;;;;;;;;8398099;28;20098;-83
2022/12/13 12:19:51;;;;;;;27.55;12.27;;;;;;;;;;8401028;28;20082;-83
2022/12/13 12:24:07;;;;;;;20.90;9.55;;;;;;;;;;8401004;28;20078;-89
2022/12/13 12:28:22;;;;;;;15.48;7.90;;;;;;;;;;8385497;28;20503;-89
2022/12/13 12:32:34;;;;;;;14.68;6.75;;;;;;;;;;8400335;28;20144;-84
2022/12/13 12:36:45;;;;;;;16.88;6.75;;;;;;;;;;8400177;28;20063;-83
2022/12/13 12:41:17;;;;;;;19.43;8.23;;;;;;;;;;8399951;28;20484;-91
2022/12/13 12:45:41;;;;;;;10.25;5.78;;;;;;;;;;8399830;28;20139;-84
2022/12/13 12:50:09;;;;;;;16.67;7.82;;;;;;;;;;8397761;28;20064;-86
2022/12/13 12:54:26;;;;;;;22.27;11.23;;;;;;;;;;8398690;28;20045;-88
2022/12/13 12:58:38;;;;;;;5.63;3.55;;;;;;;;;;8390690;28;20052;-85
2022/12/13 13:02:48;;;;;;;27.45;13.20;;;;;;;;;;8410615;28;20582;-84
2022/12/13 13:06:57;;;;;;;36.60;14.52;;;;;;;;;;8413857;28;20131;-89
2022/12/13 13:11:00;;;;;;;21.67;10.30;;;;;;;;;;8413413;28;20060;-88
2022/12/13 13:15:44;;;;;;;29.45;13.77;;;;;;;;;;8399557;28;20520;-88
2022/12/13 13:19:48;;;;;;;21.20;10.82;;;;;;;;;;8388901;28;20053;-83
2022/12/13 13:24:17;;;;;;;32.40;13.68;;;;;;;;;;8396024;28;20062;-91
2022/12/13 13:28:22;;;;;;;23.23;12.45;;;;;;;;;;8398100;28;20055;-90
2022/12/13 13:32:43;;;;;;;15.07;7.57;;;;;;;;;;8390380;28;20037;-85
2022/12/13 13:36:51;;;;;;;30.58;11.50;;;;;;;;;;8393476;28;20044;-93
2022/12/13 13:40:53;;;;;;;31.15;14.73;;;;;;;;;;8398982;28;20044;-92
2022/12/13 13:45:22;;;;;;;23.88;13.02;;;;;;;;;;8391040;28;20040;-85
2022/12/13 13:49:27;;;;;;;25.10;11.65;;;;;;;;;;8396647;28;20481;-85
2022/12/13 13:54:15;;;;;;;20.88;9.73;;;;;;;;;;8369109;28;20044;-86
2022/12/13 13:58:44;;;;;;;14.40;7.88;;;;;;;;;;8374378;28;20480;-84
2022/12/13 14:03:24;;;;;;;27.08;13.25;;;;;;;;;;8393309;28;20055;-82
2022/12/13 14:08:09;;;;;;;27.38;14.57;;;;;;;;;;8387793;28;20393;-86
2022/12/13 14:13:01;;;;;;;23.63;11.48;;;;;;;;;;8378232;28;20171;-85
2022/12/13 14:17:38;;;;;;;36.03;13.95;;;;;;;;;;8393138;28;20507;-84
2022/12/13 14:21:53;;;;;;;48.85;19.95;;;;;;;;;;8393393;28;20408;-81
2022/12/13 14:26:09;;;;;;;36.63;14.27;;;;;;;;;;8395935;28;20048;-82
2022/12/13 14:30:14;;;;;;;31.40;11.98;;;;;;;;;;8396911;28;20041;-87
2022/12/13 14:34:23;;;;;;;37.72;15.93;;;;;;;;;;8411106;28;20480;-82
2022/12/13 14:38:28;;;;;;;50.90;19.25;;;;;;;;;;8396740;28;20472;-88
2022/12/13 14:42:33;;;;;;;44.88;15.77;;;;;;;;;;8396579;28;20044;-85
2022/12/13 14:46:36;;;;;;;28.17;11.25;;;;;;;;;;8396259;28;20057;-87
2022/12/13 14:50:43;;;;;;;30.70;12.95;;;;;;;;;;8396566;28;20091;-83
2022/12/13 14:54:52;;;;;;;41.33;16.10;;;;;;;;;;8395371;28;20475;-87
2022/12/13 14:59:25;;;;;;;26.10;12.35;;;;;;;;;;8379127;28;20047;-87
2022/12/13 15:03:29;;;;;;;31.13;13.10;;;;;;;;;;8384074;28;20051;-88
2022/12/13 15:07:37;;;;;;;40.90;18.38;;;;;;;;;;8396034;28;20075;-85
2022/12/13 15:11:40;;;;;;;33.92;15.82;;;;;;;;;;8379484;28;20540;-87
2022/12/13 15:15:43;;;;;;;43.33;19.52;;;;;;;;;;8391126;28;20059;-87
2022/12/13 15:19:47;;;;;;;32.45;15.30;;;;;;;;;;8387499;28;20052;-89
2022/12/13 15:23:57;;;;;;;28.35;14.00;;;;;;;;;;8385199;28;20193;-85
2022/12/13 15:28:10;;;;;;;22.42;8.80;;;;;;;;;;8393891;28;20060;-88
2022/12/13 15:32:15;;;;;;;;;;;;;;;;;;8377899;28;20091;-86
2022/12/13 15:36:26;;;;;;;22.27;9.60;;;;;;;;;;8391825;28;19951;-89
2022/12/13 15:40:39;;;;;;;20.17;9.15;;;;;;;;;;8408025;28;20056;-89
2022/12/13 15:44:54;;;;;;;13.55;5.68;;;;;;;;;;8401471;28;20048;-88
2022/12/13 15:49:06;;;;;;;19.73;9.77;;;;;;;;;;8392761;28;20052;-89
2022/12/13 15:58:02;;;;;;;27.00;11.07;;;;;;;;;;8389311;28;20052;-86
2022/12/13 16:02:16;;;;;;;31.17;12.40;;;;;;;;;;8392187;28;20075;-89
2022/12/13 16:06:21;;;;;;;32.58;14.05;;;;;;;;;;8395368;28;20056;-85
2022/12/13 16:10:25;;;;;;;40.58;17.50;;;;;;;;;;8392652;28;20048;-85
2022/12/13 16:14:45;;;;;;;43.65;17.70;;;;;;;;;;8398371;28;20040;-88
2022/12/13 16:18:53;;;;;;;27.75;11.98;;;;;;;;;;8395845;28;20044;-86
2022/12/13 16:22:56;;;;;;;23.67;9.65;;;;;;;;;;8401949;28;20479;-89
2022/12/13 16:26:59;;;;;;;21.83;9.80;;;;;;;;;;8416898;28;20044;-88
2022/12/13 16:31:14;;;;;;;36.30;15.98;;;;;;;;;;8409496;28;20059;-85
2022/12/13 16:35:17;;;;;;;53.25;20.67;;;;;;;;;;8388264;28;20044;-87
2022/12/13 16:39:22;;;;;;;27.55;10.65;;;;;;;;;;8387308;28;20105;-82
2022/12/13 16:43:26;;;;;;;18.33;8.45;;;;;;;;;;8385858;28;20070;-87
2022/12/13 16:47:31;;;;;;;21.23;10.18;;;;;;;;;;8393728;28;20056;-85
2022/12/13 16:51:34;;;;;;;19.17;8.38;;;;;;;;;;8426399;28;20056;-88
2022/12/13 16:55:37;;;;;;;12.55;6.88;;;;;;;;;;8394345;28;20073;-86
2022/12/13 16:59:41;;;;;;;40.47;12.45;;;;;;;;;;8409630;28;20071;-89
2022/12/13 17:03:51;;;;;;;41.33;11.98;;;;;;;;;;8406085;28;20037;-82
2022/12/13 17:07:55;;;;;;;31.95;11.32;;;;;;;;;;8390886;28;20477;-84
2022/12/13 17:12:01;;;;;;;26.10;8.65;;;;;;;;;;8399156;28;20451;-81
2022/12/13 17:16:05;;;;;;;29.75;12.73;;;;;;;;;;8402363;28;20063;-86
2022/12/13 17:20:13;;;;;;;23.13;14.25;;;;;;;;;;8406961;28;20084;-85
2022/12/13 17:24:26;;;;;;;;;;;;;;;;;;8409586;28;20041;-90
2022/12/13 17:28:31;;;;;;;27.75;12.95;;;;;;;;;;8412883;28;19991;-92
2022/12/13 17:32:36;;;;;;;25.25;13.13;;;;;;;;;;8402719;28;20037;-87
2022/12/13 17:36:55;;;;;;;67.40;20.05;;;;;;;;;;8406905;28;20044;-85
2022/12/13 17:40:59;;;;;;;52.47;15.88;;;;;;;;;;8406448;28;20092;-86
2022/12/13 17:45:05;;;;;;;32.15;13.48;;;;;;;;;;8410208;28;20048;-82
2022/12/13 17:49:10;;;;;;;35.13;13.10;;;;;;;;;;8411852;28;20045;-83
2022/12/13 17:53:20;;;;;;;29.35;10.43;;;;;;;;;;8396916;28;20045;-85
2022/12/13 17:57:25;;;;;;;46.58;14.18;;;;;;;;;;8415776;28;20070;-82
2022/12/13 18:01:29;;;;;;;44.40;15.68;;;;;;;;;;8420671;28;20025;-92
2022/12/13 18:05:32;;;;;;;39.67;16.15;;;;;;;;;;8423830;28;20029;-84
2022/12/13 18:09:40;;;;;;;26.17;10.15;;;;;;;;;;8398283;28;20427;-82
2022/12/13 18:13:44;;;;;;;14.77;11.38;;;;;;;;;;8423076;28;20127;-86
2022/12/13 18:17:50;;;;;;;30.92;14.82;;;;;;;;;;8421492;28;20075;-85
2022/12/13 18:21:57;;;;;;;34.95;13.43;;;;;;;;;;8417284;28;20060;-81
2022/12/13 18:26:05;;;;;;;40.67;17.60;;;;;;;;;;8405601;28;20056;-84
2022/12/13 18:30:12;;;;;;;30.02;14.38;;;;;;;;;;8418623;28;20190;-84
2022/12/13 18:34:16;;;;;;;25.35;10.95;;;;;;;;;;8419967;28;20056;-83
2022/12/13 18:38:24;;;;;;;26.55;12.57;;;;;;;;;;8416789;28;20120;-85
2022/12/13 18:42:31;;;;;;;27.65;12.90;;;;;;;;;;8419899;28;20049;-84
2022/12/13 18:46:47;;;;;;;25.50;12.52;;;;;;;;;;8422764;28;20108;-86
2022/12/13 18:51:12;;;;;;;23.27;10.23;;;;;;;;;;8425935;28;20041;-85
2022/12/13 18:55:48;;;;;;;34.10;13.20;;;;;;;;;;8427155;28;20055;-86
2022/12/13 19:00:10;;;;;;;24.15;10.20;;;;;;;;;;8427258;28;20074;-80
2022/12/13 19:09:07;;;;;;;28.88;11.20;;;;;;;;;;8424719;28;19950;-86
2022/12/13 19:13:28;;;;;;;28.17;11.63;;;;;;;;;;8356463;28;20030;-83
2022/12/13 19:17:37;;;;;;;32.80;13.30;;;;;;;;;;8357018;28;20121;-85
2022/12/13 19:21:45;;;;;;;37.38;15.57;;;;;;;;;;8359369;28;20402;-86
2022/12/13 19:25:50;;;;;;;33.03;14.40;;;;;;;;;;8358681;28;20664;-87
2022/12/13 19:29:59;;;;;;;33.63;13.93;;;;;;;;;;8356013;28;20037;-85
2022/12/13 19:34:06;;;;;;;29.98;13.13;;;;;;;;;;8359808;28;20041;-80
2022/12/13 19:38:12;;;;;;;43.53;15.52;;;;;;;;;;8360413;28;20053;-79
2022/12/13 19:42:18;;;;;;;33.25;15.63;;;;;;;;;;8356677;28;20073;-83
2022/12/13 19:46:23;;;;;;;31.38;12.25;;;;;;;;;;8354790;28;20236;-81
2022/12/13 19:50:30;;;;;;;31.73;12.23;;;;;;;;;;8355233;28;20045;-85
2022/12/13 19:54:37;;;;;;;33.35;15.80;;;;;;;;;;8353637;28;20060;-86
2022/12/13 19:58:45;;;;;;;43.88;16.67;;;;;;;;;;8355930;28;20132;-83
2022/12/13 20:02:52;;;;;;;63.00;23.38;;;;;;;;;;8354939;28;20064;-81
2022/12/13 20:07:01;;;;;;;45.42;19.20;;;;;;;;;;8312939;28;20057;-82
2022/12/13 20:11:08;;;;;;;20.92;9.85;;;;;;;;;;8381406;28;20052;-86
2022/12/13 20:15:13;;;;;;;31.52;13.60;;;;;;;;;;8420298;28;20040;-86
2022/12/13 20:19:20;;;;;;;30.48;13.00;;;;;;;;;;8401454;28;20064;-80
2022/12/13 20:23:30;;;;;;;43.05;19.00;;;;;;;;;;8418429;28;20049;-82
2022/12/13 20:27:36;;;;;;;;;;;;;;;;;;8419091;28;20044;-81
2022/12/13 20:31:41;;;;;;;29.63;12.60;;;;;;;;;;8417694;28;19924;-82
2022/12/13 20:35:47;;;;;;;23.05;11.05;;;;;;;;;;8419375;28;20051;-82
2022/12/13 20:39:54;;;;;;;33.15;14.35;;;;;;;;;;8423555;28;20048;-83
2022/12/13 20:44:03;;;;;;;42.88;19.60;;;;;;;;;;8425055;28;20120;-83
2022/12/13 20:48:14;;;;;;;21.45;11.18;;;;;;;;;;8423189;28;20044;-82
2022/12/13 20:52:18;;;;;;;35.22;14.57;;;;;;;;;;8407169;28;20056;-86
2022/12/13 20:56:34;;;;;;;34.90;16.63;;;;;;;;;;8424094;28;20056;-86
2022/12/13 21:00:40;;;;;;;23.98;11.23;;;;;;;;;;8424493;28;20059;-83
2022/12/13 21:04:45;;;;;;;26.38;10.52;;;;;;;;;;8413080;28;20049;-84
2022/12/13 21:08:51;;;;;;;18.63;9.63;;;;;;;;;;8421739;28;20072;-87
2022/12/13 21:12:57;;;;;;;29.33;13.85;;;;;;;;;;8422858;28;20075;-82
2022/12/13 21:17:03;;;;;;;28.13;14.18;;;;;;;;;;8425861;28;20048;-80
2022/12/13 21:21:07;;;;;;;28.52;12.02;;;;;;;;;;8425672;28;20045;-88
2022/12/13 21:25:11;;;;;;;20.70;10.57;;;;;;;;;;8424308;28;20051;-87
2022/12/13 21:29:16;;;;;;;44.70;16.25;;;;;;;;;;8422312;28;20098;-83
2022/12/13 21:33:18;;;;;;;34.00;14.63;;;;;;;;;;8423372;28;20060;-85
2022/12/13 21:37:21;;;;;;;36.30;16.23;;;;;;;;;;8426073;28;20116;-84
2022/12/13 21:41:25;;;;;;;61.80;24.05;;;;;;;;;;8424993;28;20055;-81
2022/12/13 21:45:29;;;;;;;30.80;14.07;;;;;;;;;;8426447;28;20048;-85
2022/12/13 21:49:32;;;;;;;38.72;15.27;;;;;;;;;;8421093;28;20217;-82
2022/12/13 21:53:34;;;;;;;29.30;11.65;;;;;;;;;;8425179;28;20052;-80
2022/12/13 22:02:13;;;;;;;55.25;22.15;;;;;;;;;;8426730;28;20029;-81
2022/12/13 22:06:16;;;;;;;35.33;11.75;;;;;;;;;;8425471;28;20045;-86
2022/12/13 22:10:19;;;;;;;32.75;12.73;;;;;;;;;;8427657;28;20056;-81
2022/12/13 22:14:22;;;;;;;35.88;13.38;;;;;;;;;;8415041;28;20195;-83
2022/12/13 22:18:26;;;;;;;36.45;16.30;;;;;;;;;;8407111;28;20052;-81
2022/12/13 22:22:29;;;;;;;25.38;13.65;;;;;;;;;;8425696;28;20094;-82
2022/12/13 22:26:32;;;;;;;33.95;15.05;;;;;;;;;;8426385;28;20107;-87
2022/12/13 22:30:35;;;;;;;22.48;11.40;;;;;;;;;;8426370;28;20484;-81
2022/12/13 22:34:39;;;;;;;31.42;12.95;;;;;;;;;;8425390;28;20072;-80
2022/12/13 22:38:41;;;;;;;25.38;11.88;;;;;;;;;;8421471;28;20047;-84
2022/12/13 22:42:45;;;;;;;32.85;13.90;;;;;;;;;;8424666;28;20048;-81
2022/12/13 22:46:48;;;;;;;32.47;13.20;;;;;;;;;;8423911;28;20059;-84
2022/12/13 22:50:52;;;;;;;23.90;11.90;;;;;;;;;;8423451;28;20097;-84
2022/12/13 22:54:55;;;;;;;24.05;12.30;;;;;;;;;;8426628;28;20052;-83
2022/12/13 22:59:00;;;;;;;24.20;12.20;;;;;;;;;;8429346;28;20048;-85
2022/12/13 23:03:03;;;;;;;22.55;11.38;;;;;;;;;;8430017;28;20055;-86
2022/12/13 23:07:07;;;;;;;23.23;11.02;;;;;;;;;;8430530;28;20049;-81
2022/12/13 23:15:31;;;;;;;18.67;9.20;;;;;;;;;;8429782;28;20064;-84
2022/12/13 23:19:35;;;;;;;28.85;11.13;;;;;;;;;;8426821;28;20104;-85
2022/12/13 23:23:39;;;;;;;27.65;11.35;;;;;;;;;;8432014;28;20041;-81
2022/12/13 23:27:42;;;;;;;31.88;13.98;;;;;;;;;;8428979;28;20048;-82
2022/12/13 23:31:46;;;;;;;21.58;9.00;;;;;;;;;;8430235;28;20044;-84
2022/12/13 23:35:58;;;;;;;28.38;10.05;;;;;;;;;;8429165;28;20048;-81
2022/12/13 23:40:02;;;;;;;;;;;;;;;;;;8429826;28;20123;-81
2022/12/13 23:44:05;;;;;;;23.38;11.38;;;;;;;;;;8427957;28;19936;-82
2022/12/13 23:48:07;;;;;;;21.40;9.73;;;;;;;;;;8426551;28;20072;-85
2022/12/13 23:52:10;;;;;;;28.23;13.80;;;;;;;;;;8425670;28;20120;-85
2022/12/13 23:56:16;;;;;;;20.65;11.90;;;;;;;;;;8413035;28;20055;-82
